Ever Lenient — 2HDF9 — position and weather

sailwx.info

Track history (hours):
 
Tides and Currents Weather Stations Pressure Air Temp Water Temp Dewpoint Dewpoint Depression Visibility Wind Speed Wind Dir Waves Ship Positions

Ever Lenient

Last reported at 2017-Sep-20 22:54 UTC. Time now 2017-Sep-21 07:08 UTC.
Position N 29°18' E 122°29'.

Length 335 m; draft 10.7 m.

Type: Ship (hazmat cat D). MMSI: 235102677.

Date/timePositionNaut miles runAvg speedWind from/ knotsBaromVisibWave heightAir tempDewpointWater temp
2017-Sep-20 22:54N 29°18' E 122°29'922.7
2017-Sep-20 22:30N 29°27' E 122°30'1122.6
2017-Sep-20 22:00N 29°39' E 122°30'1016.8
2017-Sep-20 21:24N 29°44' E 122°20'410.7
2017-Sep-20 21:00N 29°47' E 122°16'510.7
2017-Sep-20 20:29N 29°51' E 122°12'712.4
2017-Sep-20 19:57N 29°54' E 122°06'3 6.6
2017-Sep-20 19:30N 29°54' E 122°02'0 0.1
2017-Sep-20 18:21N 29°54' E 122°02'0 0.0
2017-Sep-20 17:51N 29°54' E 122°02'0 0.0
2017-Sep-20 17:08N 29°54' E 122°02'0 0.0
2017-Sep-20 16:44N 29°54' E 122°02'0 0.0
2017-Sep-20 16:20N 29°54' E 122°02'0 0.0
2017-Sep-20 15:51N 29°54' E 122°02'0 0.0
2017-Sep-20 15:26N 29°54' E 122°02'0 0.0
2017-Sep-20 14:56N 29°54' E 122°02'0 0.0
2017-Sep-20 13:56N 29°54' E 122°02'0 0.0
2017-Sep-20 13:26N 29°54' E 122°02'0 0.0
2017-Sep-20 12:56N 29°54' E 122°02'0 0.0
2017-Sep-20 12:26N 29°54' E 122°02'0 0.0
2017-Sep-20 11:59N 29°54' E 122°02'0 0.0
2017-Sep-20 11:29N 29°54' E 122°02'0 0.0
2017-Sep-20 10:56N 29°54' E 122°02'0 0.0
2017-Sep-20 10:29N 29°54' E 122°02'0 0.0
2017-Sep-20 09:53N 29°54' E 122°02'0 0.0
2017-Sep-20 09:20N 29°54' E 122°02'0 0.0
2017-Sep-20 08:59N 29°54' E 122°02'0 0.0
2017-Sep-20 08:29N 29°54' E 122°02'0 0.0
2017-Sep-20 07:59N 29°54' E 122°02'0 0.0
2017-Sep-20 07:23N 29°54' E 122°02'0 0.0
2017-Sep-20 07:00N 29°54' E 122°02'1 2.4
2017-Sep-20 06:31N 29°54' E 122°03'3 6.5
2017-Sep-20 06:00N 29°55' E 122°07'4 8.5
2017-Sep-20 05:30N 29°53' E 122°11'611.1
2017-Sep-20 05:00N 29°48' E 122°15'510.2
2017-Sep-20 04:30N 29°45' E 122°19'611.7
2017-Sep-20 04:00N 29°44' E 122°26'611.2
2017-Sep-20 03:30N 29°43' E 122°32'713.4
2017-Sep-20 02:59N 29°43' E 122°40'2 3.0
2017-Sep-20 02:25N 29°43' E 122°42'0 0.1
2017-Sep-20 01:37N 29°43' E 122°42'0 0.1
2017-Sep-20 00:37N 29°43' E 122°42'0 0.3
2017-Sep-20 00:25N 29°43' E 122°42'0 0.1
2017-Sep-19 23:49N 29°43' E 122°42'0 0.2
2017-Sep-19 23:25N 29°43' E 122°42'0 0.2
2017-Sep-19 22:55N 29°43' E 122°42'0 0.1
2017-Sep-19 21:58N 29°43' E 122°42'0 0.2
2017-Sep-19 21:22N 29°43' E 122°42'0 0.1
2017-Sep-19 20:40N 29°43' E 122°42'0 0.0
2017-Sep-19 20:25N 29°43' E 122°42'0 0.1
2017-Sep-19 19:55N 29°43' E 122°42'0 0.0
2017-Sep-19 19:25N 29°43' E 122°42'0 0.0
2017-Sep-19 18:58N 29°43' E 122°42'0 0.0
2017-Sep-19 17:43N 29°43' E 122°42'0 0.2
2017-Sep-19 17:25N 29°43' E 122°42'0 0.1
2017-Sep-19 16:55N 29°43' E 122°42'0 0.2
2017-Sep-19 16:19N 29°43' E 122°42'0 0.2
2017-Sep-19 15:55N 29°43' E 122°42'0 0.1
2017-Sep-19 15:25N 29°43' E 122°42'0 0.0
2017-Sep-19 14:55N 29°43' E 122°42'0 0.1
2017-Sep-19 14:25N 29°43' E 122°42'0 0.0
2017-Sep-19 13:55N 29°43' E 122°42'0 0.1
2017-Sep-19 13:25N 29°43' E 122°42'0 0.1
2017-Sep-19 12:49N 29°43' E 122°42'0 0.1
2017-Sep-19 12:01N 29°43' E 122°42'0 0.0
2017-Sep-19 11:43N 29°43' E 122°42'0 0.0
2017-Sep-19 11:25N 29°43' E 122°42'0 0.1
2017-Sep-19 09:31N 29°43' E 122°42'0 0.1
2017-Sep-19 09:19N 29°43' E 122°42'0 0.1
2017-Sep-19 08:52N 29°43' E 122°42'0 0.1
2017-Sep-19 07:19N 29°43' E 122°42'0 0.1
2017-Sep-19 06:31N 29°43' E 122°42'0 0.2
2017-Sep-19 06:13N 29°43' E 122°42'0 0.2
2017-Sep-19 05:55N 29°43' E 122°42'0 0.1
2017-Sep-19 05:28N 29°43' E 122°42'0 0.2
2017-Sep-19 04:43N 29°43' E 122°42'0 0.1
2017-Sep-19 04:25N 29°43' E 122°42'0 0.1
2017-Sep-19 03:43N 29°43' E 122°42'0 0.0
2017-Sep-19 03:13N 29°43' E 122°42'0 0.2
2017-Sep-19 02:49N 29°43' E 122°42'0 0.0
2017-Sep-19 02:13N 29°43' E 122°42'0 0.0
2017-Sep-19 01:49N 29°43' E 122°42'0 0.0
2017-Sep-19 01:13N 29°43' E 122°42'0 0.0
2017-Sep-19 00:49N 29°43' E 122°42'0 0.1
2017-Sep-19 00:19N 29°43' E 122°42'0 0.0
2017-Sep-18 23:55N 29°43' E 122°42'0 0.0
2017-Sep-18 23:25N 29°43' E 122°42'0 0.0
2017-Sep-18 21:49N 29°43' E 122°42'0 0.4
2017-Sep-18 21:07N 29°43' E 122°42'0 0.0
2017-Sep-18 20:52N 29°43' E 122°42'0 0.0
2017-Sep-18 20:29N 29°43' E 122°42'0 0.1
2017-Sep-18 19:55N 29°43' E 122°42'0 0.2
2017-Sep-18 19:16N 29°43' E 122°42'0 0.0
2017-Sep-18 18:58N 29°43' E 122°42'0 0.0
2017-Sep-18 18:25N 29°43' E 122°42'0 0.2
2017-Sep-18 17:55N 29°43' E 122°42'0 0.0
2017-Sep-18 17:25N 29°43' E 122°42'0 0.0
2017-Sep-18 16:43N 29°43' E 122°42'0 0.1
2017-Sep-18 16:19N 29°43' E 122°42'0 0.1
2017-Sep-18 15:49N 29°43' E 122°42'0 0.0
2017-Sep-18 15:25N 29°43' E 122°42'0 0.0
2017-Sep-18 09:37N 29°43' E 122°42'0 0.1
2017-Sep-18 09:13N 29°43' E 122°42'0 0.1
2017-Sep-18 07:16N 29°43' E 122°42'0 0.0
2017-Sep-18 06:55N 29°43' E 122°42'0 0.0
2017-Sep-18 05:43N 29°43' E 122°42'0 0.1
2017-Sep-18 05:13N 29°43' E 122°42'0 0.0
2017-Sep-18 04:55N 29°43' E 122°42'0 0.1
2017-Sep-18 04:30N 29°43' E 122°42'0 0.2
2017-Sep-18 04:00N 29°43' E 122°42'0 0.4
2017-Sep-18 03:30N 29°43' E 122°42'5 9.2
2017-Sep-18 03:00N 29°48' E 122°40'714.2
2017-Sep-18 02:30N 29°52' E 122°46'1018.9
2017-Sep-18 01:59N 29°56' E 122°56'1017.7
2017-Sep-18 01:25N 30°04' E 123°04'1918.5
2017-Sep-18 00:24N 30°21' E 122°56'1219.5
2017-Sep-17 23:47N 30°28' E 122°44'518.7
2017-Sep-17 23:29N 30°29' E 122°38'1816.6
2017-Sep-17 22:24N 30°33' E 122°17'611.2
2017-Sep-17 21:53N 30°34' E 122°10'5 9.8
2017-Sep-17 21:20N 30°36' E 122°05'0 0.0
2017-Sep-17 19:34N 30°36' E 122°05'0 0.0
2017-Sep-17 19:10N 30°36' E 122°05'0 0.0
2017-Sep-17 18:58N 30°36' E 122°05'0 0.1
2017-Sep-17 18:28N 30°36' E 122°05'0 0.1
2017-Sep-17 17:58N 30°36' E 122°05'0 0.0
2017-Sep-17 17:28N 30°36' E 122°05'30 2.4
2017-Sep-17 05:22N 30°32' E 122°39'4 9.8
2017-Sep-17 04:58N 30°32' E 122°43'510.5
2017-Sep-17 04:30N 30°33' E 122°49'5 9.9
2017-Sep-17 04:00N 30°33' E 122°55'6 9.4
2017-Sep-17 03:23N 30°33' E 123°02'  
2017-Sep-14 15:10N 35°39' E 121°19'32112.0
2017-Sep-13 12:33N 30°35' E 123°20'120.2
2017-Sep-13 12:31N 30°35' E 123°20'1020.3
2017-Sep-13 12:00N 30°24' E 123°20'1620.2
2017-Sep-13 11:14N 30°09' E 123°20'520.2
2017-Sep-13 10:59N 30°04' E 123°20'2119.8
2017-Sep-13 09:55N 29°44' E 123°11'820.2
2017-Sep-13 09:30N 29°37' E 123°07'43821.5
2017-Sep-12 13:09N 22°52' E 120°01'322.3
2017-Sep-12 13:00N 22°49' E 120°03'1121.8
2017-Sep-12 12:31N 22°40' E 120°09'917.1
2017-Sep-12 12:00N 22°33' E 120°15'4 2.3
2017-Sep-12 10:19N 22°34' E 120°19'0 0.0
2017-Sep-12 09:55N 22°34' E 120°19'0 0.0
2017-Sep-12 08:19N 22°34' E 120°19'0 0.0
2017-Sep-12 07:58N 22°34' E 120°19'0 0.0
2017-Sep-12 07:25N 22°34' E 120°19'0 0.0
2017-Sep-12 05:37N 22°34' E 120°19'0 0.0
2017-Sep-12 03:34N 22°34' E 120°19'0 0.1
2017-Sep-12 03:28N 22°34' E 120°19'0 0.0
2017-Sep-12 02:58N 22°34' E 120°19'0 0.0
2017-Sep-12 02:19N 22°34' E 120°19'0 0.0
2017-Sep-11 22:40N 22°34' E 120°19'0 0.0
2017-Sep-11 22:25N 22°34' E 120°19'0 0.6
2017-Sep-11 22:00N 22°33' E 120°19'1 3.0
2017-Sep-11 21:30N 22°33' E 120°18'2 3.8
2017-Sep-11 21:00N 22°32' E 120°16'1 1.6
2017-Sep-11 20:30N 22°32' E 120°15'5 9.3
2017-Sep-11 20:00N 22°31' E 120°10'714.5
2017-Sep-11 19:30N 22°31' E 120°02'1915.8
2017-Sep-11 18:17N 22°30' E 119°41'517.3
2017-Sep-11 18:00N 22°29' E 119°36'816.1
2017-Sep-11 17:30N 22°29' E 119°27'815.8
2017-Sep-11 17:00N 22°28' E 119°19'815.8
2017-Sep-11 16:30N 22°27' E 119°10'816.1
2017-Sep-11 16:00N 22°26' E 119°02'816.3
2017-Sep-11 15:30N 22°26' E 118°53'816.5
2017-Sep-11 15:00N 22°25' E 118°44'816.2
2017-Sep-11 14:30N 22°24' E 118°35'1016.4
2017-Sep-11 13:53N 22°24' E 118°24'916.3
2017-Sep-11 13:20N 22°23' E 118°15'3916.3
2017-Sep-11 10:57N 22°19' E 117°33'816.6
2017-Sep-11 10:29N 22°19' E 117°24'815.7
2017-Sep-11 10:00N 22°18' E 117°16'  
Track history (hours):
 
Tides and Currents Weather Stations Pressure Air Temp Water Temp Dewpoint Dewpoint Depression Visibility Wind Speed Wind Dir Waves Ship Positions

Ever Lenient

Last reported at 2017-Sep-20 22:54 UTC. Time now 2017-Sep-21 07:08 UTC.
Position N 29°18' E 122°29'.

Length 335 m; draft 10.7 m.

Type: Ship (hazmat cat D). MMSI: 235102677.

Date/timePositionNaut miles runAvg speedWind from/ knotsBaromVisibWave heightAir tempDewpointWater temp
2017-Sep-20 22:54N 29°18' E 122°29'922.7
2017-Sep-20 22:30N 29°27' E 122°30'1122.6
2017-Sep-20 22:00N 29°39' E 122°30'1016.8
2017-Sep-20 21:24N 29°44' E 122°20'410.7
2017-Sep-20 21:00N 29°47' E 122°16'510.7
2017-Sep-20 20:29N 29°51' E 122°12'712.4
2017-Sep-20 19:57N 29°54' E 122°06'3 6.6
2017-Sep-20 19:30N 29°54' E 122°02'0 0.1
2017-Sep-20 18:21N 29°54' E 122°02'0 0.0
2017-Sep-20 17:51N 29°54' E 122°02'0 0.0
2017-Sep-20 17:08N 29°54' E 122°02'0 0.0
2017-Sep-20 16:44N 29°54' E 122°02'0 0.0
2017-Sep-20 16:20N 29°54' E 122°02'0 0.0
2017-Sep-20 15:51N 29°54' E 122°02'0 0.0
2017-Sep-20 15:26N 29°54' E 122°02'0 0.0
2017-Sep-20 14:56N 29°54' E 122°02'0 0.0
2017-Sep-20 13:56N 29°54' E 122°02'0 0.0
2017-Sep-20 13:26N 29°54' E 122°02'0 0.0
2017-Sep-20 12:56N 29°54' E 122°02'0 0.0
2017-Sep-20 12:26N 29°54' E 122°02'0 0.0
2017-Sep-20 11:59N 29°54' E 122°02'0 0.0
2017-Sep-20 11:29N 29°54' E 122°02'0 0.0
2017-Sep-20 10:56N 29°54' E 122°02'0 0.0
2017-Sep-20 10:29N 29°54' E 122°02'0 0.0
2017-Sep-20 09:53N 29°54' E 122°02'0 0.0
2017-Sep-20 09:20N 29°54' E 122°02'0 0.0
2017-Sep-20 08:59N 29°54' E 122°02'0 0.0
2017-Sep-20 08:29N 29°54' E 122°02'0 0.0
2017-Sep-20 07:59N 29°54' E 122°02'0 0.0
2017-Sep-20 07:23N 29°54' E 122°02'0 0.0
2017-Sep-20 07:00N 29°54' E 122°02'1 2.4
2017-Sep-20 06:31N 29°54' E 122°03'3 6.5
2017-Sep-20 06:00N 29°55' E 122°07'4 8.5
2017-Sep-20 05:30N 29°53' E 122°11'611.1
2017-Sep-20 05:00N 29°48' E 122°15'510.2
2017-Sep-20 04:30N 29°45' E 122°19'611.7
2017-Sep-20 04:00N 29°44' E 122°26'611.2
2017-Sep-20 03:30N 29°43' E 122°32'713.4
2017-Sep-20 02:59N 29°43' E 122°40'2 3.0
2017-Sep-20 02:25N 29°43' E 122°42'0 0.1
2017-Sep-20 01:37N 29°43' E 122°42'0 0.1
2017-Sep-20 00:37N 29°43' E 122°42'0 0.3
2017-Sep-20 00:25N 29°43' E 122°42'0 0.1
2017-Sep-19 23:49N 29°43' E 122°42'0 0.2
2017-Sep-19 23:25N 29°43' E 122°42'0 0.2
2017-Sep-19 22:55N 29°43' E 122°42'0 0.1
2017-Sep-19 21:58N 29°43' E 122°42'0 0.2
2017-Sep-19 21:22N 29°43' E 122°42'0 0.1
2017-Sep-19 20:40N 29°43' E 122°42'0 0.0
2017-Sep-19 20:25N 29°43' E 122°42'0 0.1
2017-Sep-19 19:55N 29°43' E 122°42'0 0.0
2017-Sep-19 19:25N 29°43' E 122°42'0 0.0
2017-Sep-19 18:58N 29°43' E 122°42'0 0.0
2017-Sep-19 17:43N 29°43' E 122°42'0 0.2
2017-Sep-19 17:25N 29°43' E 122°42'0 0.1
2017-Sep-19 16:55N 29°43' E 122°42'0 0.2
2017-Sep-19 16:19N 29°43' E 122°42'0 0.2
2017-Sep-19 15:55N 29°43' E 122°42'0 0.1
2017-Sep-19 15:25N 29°43' E 122°42'0 0.0
2017-Sep-19 14:55N 29°43' E 122°42'0 0.1
2017-Sep-19 14:25N 29°43' E 122°42'0 0.0
2017-Sep-19 13:55N 29°43' E 122°42'0 0.1
2017-Sep-19 13:25N 29°43' E 122°42'0 0.1
2017-Sep-19 12:49N 29°43' E 122°42'0 0.1
2017-Sep-19 12:01N 29°43' E 122°42'0 0.0
2017-Sep-19 11:43N 29°43' E 122°42'0 0.0
2017-Sep-19 11:25N 29°43' E 122°42'0 0.1
2017-Sep-19 09:31N 29°43' E 122°42'0 0.1
2017-Sep-19 09:19N 29°43' E 122°42'0 0.1
2017-Sep-19 08:52N 29°43' E 122°42'0 0.1
2017-Sep-19 07:19N 29°43' E 122°42'0 0.1
2017-Sep-19 06:31N 29°43' E 122°42'0 0.2
2017-Sep-19 06:13N 29°43' E 122°42'0 0.2
2017-Sep-19 05:55N 29°43' E 122°42'0 0.1
2017-Sep-19 05:28N 29°43' E 122°42'0 0.2
2017-Sep-19 04:43N 29°43' E 122°42'0 0.1
2017-Sep-19 04:25N 29°43' E 122°42'0 0.1
2017-Sep-19 03:43N 29°43' E 122°42'0 0.0
2017-Sep-19 03:13N 29°43' E 122°42'0 0.2
2017-Sep-19 02:49N 29°43' E 122°42'0 0.0
2017-Sep-19 02:13N 29°43' E 122°42'0 0.0
2017-Sep-19 01:49N 29°43' E 122°42'0 0.0
2017-Sep-19 01:13N 29°43' E 122°42'0 0.0
2017-Sep-19 00:49N 29°43' E 122°42'0 0.1
2017-Sep-19 00:19N 29°43' E 122°42'0 0.0
2017-Sep-18 23:55N 29°43' E 122°42'0 0.0
2017-Sep-18 23:25N 29°43' E 122°42'0 0.0
2017-Sep-18 21:49N 29°43' E 122°42'0 0.4
2017-Sep-18 21:07N 29°43' E 122°42'0 0.0
2017-Sep-18 20:52N 29°43' E 122°42'0 0.0
2017-Sep-18 20:29N 29°43' E 122°42'0 0.1
2017-Sep-18 19:55N 29°43' E 122°42'0 0.2
2017-Sep-18 19:16N 29°43' E 122°42'0 0.0
2017-Sep-18 18:58N 29°43' E 122°42'0 0.0
2017-Sep-18 18:25N 29°43' E 122°42'0 0.2
2017-Sep-18 17:55N 29°43' E 122°42'0 0.0
2017-Sep-18 17:25N 29°43' E 122°42'0 0.0
2017-Sep-18 16:43N 29°43' E 122°42'0 0.1
2017-Sep-18 16:19N 29°43' E 122°42'0 0.1
2017-Sep-18 15:49N 29°43' E 122°42'0 0.0
2017-Sep-18 15:25N 29°43' E 122°42'0 0.0
2017-Sep-18 09:37N 29°43' E 122°42'0 0.1
2017-Sep-18 09:13N 29°43' E 122°42'0 0.1
2017-Sep-18 07:16N 29°43' E 122°42'0 0.0
2017-Sep-18 06:55N 29°43' E 122°42'0 0.0
2017-Sep-18 05:43N 29°43' E 122°42'0 0.1
2017-Sep-18 05:13N 29°43' E 122°42'0 0.0
2017-Sep-18 04:55N 29°43' E 122°42'0 0.1
2017-Sep-18 04:30N 29°43' E 122°42'0 0.2
2017-Sep-18 04:00N 29°43' E 122°42'0 0.4
2017-Sep-18 03:30N 29°43' E 122°42'5 9.2
2017-Sep-18 03:00N 29°48' E 122°40'714.2
2017-Sep-18 02:30N 29°52' E 122°46'1018.9
2017-Sep-18 01:59N 29°56' E 122°56'1017.7
2017-Sep-18 01:25N 30°04' E 123°04'1918.5
2017-Sep-18 00:24N 30°21' E 122°56'1219.5
2017-Sep-17 23:47N 30°28' E 122°44'518.7
2017-Sep-17 23:29N 30°29' E 122°38'1816.6
2017-Sep-17 22:24N 30°33' E 122°17'611.2
2017-Sep-17 21:53N 30°34' E 122°10'5 9.8
2017-Sep-17 21:20N 30°36' E 122°05'0 0.0
2017-Sep-17 19:34N 30°36' E 122°05'0 0.0
2017-Sep-17 19:10N 30°36' E 122°05'0 0.0
2017-Sep-17 18:58N 30°36' E 122°05'0 0.1
2017-Sep-17 18:28N 30°36' E 122°05'0 0.1
2017-Sep-17 17:58N 30°36' E 122°05'0 0.0
2017-Sep-17 17:28N 30°36' E 122°05'30 2.4
2017-Sep-17 05:22N 30°32' E 122°39'4 9.8
2017-Sep-17 04:58N 30°32' E 122°43'510.5
2017-Sep-17 04:30N 30°33' E 122°49'5 9.9
2017-Sep-17 04:00N 30°33' E 122°55'6 9.4
2017-Sep-17 03:23N 30°33' E 123°02'  
2017-Sep-14 15:10N 35°39' E 121°19'32112.0
2017-Sep-13 12:33N 30°35' E 123°20'120.2
2017-Sep-13 12:31N 30°35' E 123°20'1020.3
2017-Sep-13 12:00N 30°24' E 123°20'1620.2
2017-Sep-13 11:14N 30°09' E 123°20'520.2
2017-Sep-13 10:59N 30°04' E 123°20'2119.8
2017-Sep-13 09:55N 29°44' E 123°11'820.2
2017-Sep-13 09:30N 29°37' E 123°07'43821.5
2017-Sep-12 13:09N 22°52' E 120°01'322.3
2017-Sep-12 13:00N 22°49' E 120°03'1121.8
2017-Sep-12 12:31N 22°40' E 120°09'917.1
2017-Sep-12 12:00N 22°33' E 120°15'4 2.3
2017-Sep-12 10:19N 22°34' E 120°19'0 0.0
2017-Sep-12 09:55N 22°34' E 120°19'0 0.0
2017-Sep-12 08:19N 22°34' E 120°19'0 0.0
2017-Sep-12 07:58N 22°34' E 120°19'0 0.0
2017-Sep-12 07:25N 22°34' E 120°19'0 0.0
2017-Sep-12 05:37N 22°34' E 120°19'0 0.0
2017-Sep-12 03:34N 22°34' E 120°19'0 0.1
2017-Sep-12 03:28N 22°34' E 120°19'0 0.0
2017-Sep-12 02:58N 22°34' E 120°19'0 0.0
2017-Sep-12 02:19N 22°34' E 120°19'0 0.0
2017-Sep-11 22:40N 22°34' E 120°19'0 0.0
2017-Sep-11 22:25N 22°34' E 120°19'0 0.6
2017-Sep-11 22:00N 22°33' E 120°19'1 3.0
2017-Sep-11 21:30N 22°33' E 120°18'2 3.8
2017-Sep-11 21:00N 22°32' E 120°16'1 1.6
2017-Sep-11 20:30N 22°32' E 120°15'5 9.3
2017-Sep-11 20:00N 22°31' E 120°10'714.5
2017-Sep-11 19:30N 22°31' E 120°02'1915.8
2017-Sep-11 18:17N 22°30' E 119°41'517.3
2017-Sep-11 18:00N 22°29' E 119°36'816.1
2017-Sep-11 17:30N 22°29' E 119°27'815.8
2017-Sep-11 17:00N 22°28' E 119°19'815.8
2017-Sep-11 16:30N 22°27' E 119°10'816.1
2017-Sep-11 16:00N 22°26' E 119°02'816.3
2017-Sep-11 15:30N 22°26' E 118°53'816.5
2017-Sep-11 15:00N 22°25' E 118°44'816.2
2017-Sep-11 14:30N 22°24' E 118°35'1016.4
2017-Sep-11 13:53N 22°24' E 118°24'916.3
2017-Sep-11 13:20N 22°23' E 118°15'3916.3
2017-Sep-11 10:57N 22°19' E 117°33'816.6
2017-Sep-11 10:29N 22°19' E 117°24'815.7
2017-Sep-11 10:00N 22°18' E 117°16'  

Dump ship's entire track history